Time;durP1;ratioP1;P1;durP2;ratioP2;P2;SDS_P1;SDS_P2;PMS_P1;PMS_P2;Temp;Humidity;BMP_temperature;BMP_pressure;BME280_temperature;BME280_humidity;BME280_pressure;Samples;Min_cycle;Max_cycle;Signal;HPM_P1;HPM_P2
2021/07/23 00:01:30;;;;;;;22.40;11.63;;;;;;;24.34;52.25;101460.41;3787288;22;20868;-82
2021/07/23 00:06:49;;;;;;;23.55;13.80;;;;;;;24.21;53.82;101459.50;3729511;22;20048;-84
2021/07/23 00:09:42;;;;;;;22.58;12.00;;;;;;;24.20;52.63;101458.66;1222964;22;21812;-82
2021/07/23 00:40:05;;;;;;;15.75;7.88;;;;;;;23.70;52.93;101435.38;3728522;22;20040;-83
2021/07/23 01:14:11;;;;;;;15.38;8.82;;;;;;;23.27;53.14;101420.34;1224607;22;21507;-83
2021/07/23 01:42:00;;;;;;;17.27;9.20;;;;;;;22.94;54.72;101407.38;1217794;22;21941;-82
2021/07/23 01:51:04;;;;;;;14.18;7.55;;;;;;;22.84;54.72;101389.38;1225534;22;22085;-82
2021/07/23 01:56:51;;;;;;;14.50;8.23;;;;;;;22.77;54.59;101384.44;1222456;22;21419;-82
2021/07/23 02:18:13;;;;;;;13.75;7.75;;;;;;;22.52;55.59;101369.13;1217466;22;21563;-82
2021/07/23 02:33:40;;;;;;;15.20;6.97;;;;;;;22.34;55.03;101366.75;1224900;22;21969;-82
2021/07/23 02:36:51;;;;;;;11.40;6.43;;;;;;;22.31;55.06;101364.28;1215761;22;21964;-83
2021/07/23 03:03:54;;;;;;;12.00;5.82;;;;;;;22.03;56.24;101331.34;3720053;22;20996;-82
2021/07/23 03:12:58;;;;;;;12.98;6.53;;;;;;;21.97;56.24;101324.59;1225326;22;22054;-82
2021/07/23 03:18:45;;;;;;;14.15;7.85;;;;;;;21.94;56.24;101313.28;1221996;22;21503;-82
2021/07/23 03:33:51;;;;;;;12.73;6.20;;;;;;;21.82;57.62;101303.41;1152222;22;20241;-82
2021/07/23 03:49:34;;;;;;;10.05;5.53;;;;;;;21.69;56.08;101295.28;1226701;22;21457;-83
2021/07/23 04:11:17;;;;;;;11.38;5.90;;;;;;;21.55;57.14;101268.69;1218918;22;21526;-82
2021/07/23 04:32:53;;;;;;;12.02;5.85;;;;;;;21.40;57.63;101266.00;1225948;22;21426;-82
2021/07/23 04:38:40;;;;;;;10.32;5.53;;;;;;;21.35;58.06;101265.41;1224896;22;21496;-83
2021/07/23 04:50:36;;;;;;;9.20;4.32;;;;;;;21.35;58.00;101256.59;1226287;22;21924;-82
2021/07/23 05:09:20;;;;;;;15.77;8.05;;;;;;;21.40;59.21;101255.38;1226408;22;21470;-83
2021/07/23 05:21:30;;;;;;;13.07;6.82;;;;;;;21.48;59.82;101247.78;1221421;22;21457;-83
2021/07/23 05:24:22;;;;;;;11.10;5.95;;;;;;;21.52;59.28;101252.91;1216890;22;22077;-82
2021/07/23 05:33:15;;;;;;;11.65;5.82;;;;;;;21.64;59.92;101262.81;1223282;22;21495;-82
2021/07/23 05:54:36;;;;;;;11.63;6.68;;;;;;;21.87;61.65;101256.97;1221155;22;22013;-83
2021/07/23 06:00:22;;;;;;;15.60;6.82;;;;;;;21.93;61.14;101261.91;1224535;22;21473;-82
2021/07/23 06:15:39;;;;;;;12.15;6.38;;;;;;;22.10;61.04;101254.69;1227055;22;21446;-82
2021/07/23 06:33:41;;;;;;;12.02;7.18;;;;;;;22.22;64.52;101227.34;1195857;22;21477;-83
2021/07/23 06:45:22;;;;;;;15.88;8.15;;;;;;;22.85;62.34;101248.13;1218057;22;21501;-82
2021/07/23 07:07:11;;;;;;;15.27;7.57;;;;;;;23.67;62.74;101241.78;1220320;22;21473;-82
2021/07/23 07:09:45;;;;;;;27.92;12.75;;;;;;;23.74;64.61;101231.53;3604600;23;20037;31
2021/07/23 07:24:41;;;;;;;22.08;9.82;;;;;;;24.21;63.05;101230.00;1211800;22;21484;-82
2021/07/23 07:53:32;;;;;;;17.90;9.23;;;;;;;24.93;61.12;101228.28;1216886;22;21511;-82
2021/07/23 08:02:19;;;;;;;20.48;10.57;;;;;;;25.05;61.23;101216.69;1212466;22;21481;-83
2021/07/23 08:17:10;;;;;;;22.05;10.85;;;;;;;25.46;60.61;101214.53;1218982;22;21474;-82
2021/07/23 08:29:19;;;;;;;21.40;11.32;;;;;;;25.62;59.66;101210.53;1222439;22;21478;-82
2021/07/23 08:35:13;;;;;;;19.10;10.02;;;;;;;25.68;59.63;101203.00;3709952;22;20063;-83
2021/07/23 08:50:16;;;;;;;17.75;10.05;;;;;;;25.99;59.23;101206.81;1217169;22;21959;-82
2021/07/23 08:53:11;;;;;;;18.65;10.02;;;;;;;26.10;59.50;101205.00;1210982;23;21511;-82
2021/07/23 09:17:41;;;;;;;15.43;7.15;;;;;;;27.20;56.62;101195.09;1216225;22;21455;-83
2021/07/23 09:29:19;;;;;;;20.38;8.63;;;;;;;27.90;54.95;101182.81;3662264;22;20033;-83
2021/07/23 09:35:19;;;;;;;14.75;7.35;;;;;;;28.48;54.07;101169.56;1188054;22;20193;-84
2021/07/23 09:41:13;;;;;;;13.93;6.95;;;;;;;28.98;53.40;101168.63;1217946;23;21573;-83
2021/07/23 09:43:55;;;;;;;11.52;6.95;;;;;;;29.18;52.26;101165.75;3653695;23;20037;-84
2021/07/23 09:46:35;;;;;;;12.35;6.68;;;;;;;29.47;51.81;101167.53;3694075;23;20023;-84
2021/07/23 09:49:29;;;;;;;14.90;7.72;;;;;;;29.66;50.95;101156.75;3685118;23;20037;-83
2021/07/23 09:52:04;;;;;;;17.45;8.88;;;;;;;29.66;49.71;101135.22;3716587;22;20052;-84
2021/07/23 10:03:28;;;;;;;14.20;6.97;;;;;;;30.35;47.99;101127.59;3581113;40;20052;-84
2021/07/23 10:08:53;;;;;;;11.60;6.63;;;;;;;30.82;48.22;101147.13;3581487;40;20060;-83
2021/07/23 10:11:21;;;;;;;17.30;8.60;;;;;;;30.82;46.81;101140.88;3571660;40;20055;-83
2021/07/23 10:13:53;;;;;;;14.23;8.23;;;;;;;30.96;47.17;101143.00;3555138;40;20405;-83
2021/07/23 10:19:39;;;;;;;16.30;9.00;;;;;;;31.07;46.88;101145.44;3646665;23;20049;-83
2021/07/23 10:25:24;;;;;;;13.73;7.03;;;;;;;31.16;47.01;101144.50;3679581;22;20061;-83
2021/07/23 10:34:30;;;;;;;10.60;5.95;;;;;;;32.06;46.24;101120.72;3699371;23;20085;31
2021/07/23 10:46:00;;;;;;;14.73;9.43;;;;;;;33.50;41.52;101094.88;3601356;40;20024;-84
2021/07/23 10:48:45;;;;;;;14.68;8.13;;;;;;;34.06;41.96;101116.47;3600212;40;20480;-84
2021/07/23 10:51:51;;;;;;;17.83;8.50;;;;;;;34.43;40.98;101123.88;3581791;40;20041;-84
2021/07/23 10:54:23;;;;;;;12.98;7.45;;;;;;;34.69;38.32;101118.09;3532732;40;20672;-83
2021/07/23 10:56:56;;;;;;;15.65;8.68;;;;;;;35.07;38.18;101120.84;3563258;40;20045;-84
2021/07/23 10:59:38;;;;;;;16.08;8.50;;;;;;;35.49;38.87;101116.69;3577510;40;20051;-84
2021/07/23 11:02:05;;;;;;;16.27;8.98;;;;;;;35.66;37.45;101118.16;3551592;40;20072;-84
2021/07/23 11:04:34;;;;;;;16.17;9.13;;;;;;;36.02;35.25;101117.38;3581140;40;20362;-84
2021/07/23 11:07:01;;;;;;;18.10;9.50;;;;;;;36.28;34.26;101111.38;3541872;40;20060;-84
2021/07/23 11:09:34;;;;;;;14.02;8.20;;;;;;;36.69;35.87;101108.88;3579443;40;20081;-84
2021/07/23 11:12:15;;;;;;;14.73;7.90;;;;;;;37.01;36.65;101115.66;3556210;40;20430;-84
2021/07/23 11:14:42;;;;;;;15.00;9.02;;;;;;;37.03;33.76;101104.56;3567716;40;20078;-84
2021/07/23 11:17:16;;;;;;;16.92;9.00;;;;;;;37.36;34.37;101113.84;3542032;40;20070;-84
2021/07/23 11:19:48;;;;;;;15.98;9.05;;;;;;;37.58;34.29;101116.47;3528690;40;20057;-84
2021/07/23 11:22:23;;;;;;;15.77;8.18;;;;;;;37.86;34.70;101116.38;3565772;40;20080;-84
2021/07/23 11:25:02;;;;;;;15.95;8.77;;;;;;;38.13;33.18;101106.41;3566313;40;20070;-84
2021/07/23 11:27:36;;;;;;;13.30;7.68;;;;;;;38.30;31.50;101109.63;3542695;40;20047;-84
2021/07/23 11:30:12;;;;;;;12.68;7.95;;;;;;;38.59;33.20;101113.84;3510512;40;20345;-83
2021/07/23 11:32:55;;;;;;;13.70;8.70;;;;;;;38.84;33.27;101106.75;3567927;40;20102;-83
2021/07/23 11:35:30;;;;;;;13.05;8.57;;;;;;;39.05;31.26;101102.09;3568368;40;20056;-83
2021/07/23 11:38:01;;;;;;;15.13;9.70;;;;;;;39.20;29.12;101105.47;3567327;40;20076;-84
2021/07/23 11:40:29;;;;;;;15.02;8.55;;;;;;;39.39;29.92;101106.47;3578801;40;20375;-84
2021/07/23 11:43:00;;;;;;;14.88;9.43;;;;;;;39.67;28.47;101097.97;3571592;40;20056;-83
2021/07/23 11:45:35;;;;;;;14.98;9.07;;;;;;;40.05;29.61;101097.16;3563767;40;20126;-83
2021/07/23 11:48:13;;;;;;;18.33;10.17;;;;;;;40.32;29.78;101089.63;3566123;40;20421;-83
2021/07/23 11:50:56;;;;;;;13.48;8.30;;;;;;;40.58;29.74;101091.34;3573386;40;20052;-83
2021/07/23 11:53:25;;;;;;;14.32;8.15;;;;;;;40.70;28.00;101092.28;3576056;40;20147;-83
2021/07/23 11:55:58;;;;;;;12.88;7.93;;;;;;;41.07;28.11;101095.16;3582022;40;20056;-83
2021/07/23 11:58:31;;;;;;;15.23;8.48;;;;;;;41.37;28.25;101087.88;3559271;40;20065;-83
2021/07/23 12:00:58;;;;;;;14.77;8.48;;;;;;;41.45;26.82;101082.06;3575674;40;20072;-83
2021/07/23 12:03:27;;;;;;;15.52;8.50;;;;;;;41.78;25.88;101086.34;3570916;40;20090;-82
2021/07/23 12:05:54;;;;;;;16.80;7.93;;;;;;;42.03;24.56;101083.44;3571763;40;20056;-74
2021/07/23 12:08:23;;;;;;;15.82;8.38;;;;;;;42.34;24.80;101078.78;3570951;40;20671;-74
2021/07/23 12:10:54;;;;;;;13.75;7.55;;;;;;;42.73;26.81;101077.28;3564736;40;20583;-74
2021/07/23 12:13:22;;;;;;;12.80;7.28;;;;;;;42.93;25.87;101071.41;3565450;40;20067;-74
2021/07/23 12:15:54;;;;;;;14.20;7.82;;;;;;;43.32;24.74;101075.34;3565815;40;20357;-74
2021/07/23 12:18:23;;;;;;;12.18;7.05;;;;;;;43.55;24.59;101079.16;3568948;40;20690;-74
2021/07/23 12:20:52;;;;;;;19.17;8.70;;;;;;;43.77;23.53;101071.88;3566441;40;20061;-74
2021/07/23 12:23:24;;;;;;;14.18;8.98;;;;;;;44.06;24.20;101069.97;3566474;40;20418;-74
2021/07/23 12:25:52;;;;;;;18.20;9.05;;;;;;;44.01;22.51;101065.19;3563521;40;20072;-74
2021/07/23 12:28:19;;;;;;;14.45;8.98;;;;;;;43.97;22.38;101066.78;3569682;40;20068;-74
2021/07/23 12:30:48;;;;;;;16.25;9.68;;;;;;;43.92;23.21;101074.94;3564349;40;20057;-74
2021/07/23 12:33:17;;;;;;;14.75;9.27;;;;;;;43.74;22.67;101070.44;3567364;40;20170;-74
2021/07/23 12:35:53;;;;;;;18.23;9.50;;;;;;;43.69;22.90;101073.09;3565992;40;20061;-74
2021/07/23 12:38:25;;;;;;;14.93;8.38;;;;;;;43.43;22.11;101082.75;3568263;40;20059;-74
2021/07/23 12:40:57;;;;;;;15.48;9.65;;;;;;;43.30;23.21;101071.19;3567495;40;20450;-74
2021/07/23 12:43:24;;;;;;;17.90;9.13;;;;;;;43.16;22.83;101067.84;3553274;40;20720;-74
2021/07/23 12:45:51;;;;;;;15.75;9.57;;;;;;;43.07;24.17;101064.63;3568985;40;20411;-74
2021/07/23 12:48:22;;;;;;;27.33;9.38;;;;;;;43.09;24.04;101064.38;3553813;40;20071;-74
2021/07/23 12:51:24;;;;;;;16.13;9.77;;;;;;;43.18;25.07;101068.44;3567675;40;20112;-74
2021/07/23 12:53:57;;;;;;;13.40;8.27;;;;;;;43.14;23.99;101078.22;3559034;40;20061;-74
2021/07/23 12:56:31;;;;;;;18.95;10.30;;;;;;;43.16;24.57;101081.59;3564769;40;20450;-74
2021/07/23 12:58:59;;;;;;;17.50;10.07;;;;;;;43.08;23.21;101079.22;3549369;40;20072;-74
2021/07/23 13:01:26;;;;;;;20.60;10.95;;;;;;;43.10;23.27;101080.66;3565076;40;20055;-74
2021/07/23 13:03:56;;;;;;;18.95;10.65;;;;;;;43.11;23.28;101085.06;3567321;40;20057;-73
2021/07/23 13:06:23;;;;;;;16.27;9.23;;;;;;;43.07;22.97;101077.53;3562084;40;20056;-74
2021/07/23 13:08:51;;;;;;;20.63;11.50;;;;;;;43.09;24.01;101080.88;3564873;40;20064;-74
2021/07/23 13:11:20;;;;;;;19.58;10.88;;;;;;;43.08;23.14;101070.97;3561981;40;20143;-74
2021/07/23 13:13:48;;;;;;;16.30;8.68;;;;;;;43.16;23.20;101071.44;3563360;40;20059;-74
2021/07/23 13:16:15;;;;;;;18.00;10.15;;;;;;;43.30;23.07;101076.69;3567681;40;20542;-74
2021/07/23 13:18:44;;;;;;;16.48;10.10;;;;;;;43.40;23.25;101071.38;3551390;40;20065;-74
2021/07/23 13:21:14;;;;;;;19.02;10.70;;;;;;;43.50;22.58;101072.47;3565128;40;20089;-74
2021/07/23 13:23:41;;;;;;;17.10;10.43;;;;;;;43.55;22.20;101079.16;3568253;40;20123;-74
2021/07/23 13:26:08;;;;;;;16.40;10.35;;;;;;;43.59;22.07;101069.31;3564297;40;20079;-74
2021/07/23 13:28:35;;;;;;;16.88;10.52;;;;;;;43.59;22.38;101069.31;3556217;40;20151;-74
2021/07/23 13:31:02;;;;;;;17.42;10.50;;;;;;;43.61;22.41;101058.91;3561040;40;20081;-74
2021/07/23 13:33:32;;;;;;;21.70;10.77;;;;;;;43.69;22.98;101059.31;3564031;40;20053;-74
2021/07/23 13:36:05;;;;;;;20.20;10.52;;;;;;;43.81;23.24;101050.22;3564850;40;20052;-74
2021/07/23 13:38:40;;;;;;;18.80;10.70;;;;;;;43.79;22.06;101047.69;3564717;40;20068;-74
2021/07/23 13:41:09;;;;;;;16.13;10.15;;;;;;;43.72;22.25;101052.50;3557532;40;20067;-74
2021/07/23 13:43:39;;;;;;;20.92;11.27;;;;;;;43.70;23.16;101055.53;3568234;40;20064;-74
2021/07/23 13:46:07;;;;;;;22.10;11.48;;;;;;;43.61;22.55;101061.66;3565624;40;20052;-74
2021/07/23 13:48:35;;;;;;;17.23;10.10;;;;;;;43.57;22.26;101054.97;3565175;40;20081;-74
2021/07/23 13:51:02;;;;;;;16.63;9.82;;;;;;;43.54;22.25;101055.44;3568662;40;20071;-74
2021/07/23 13:53:29;;;;;;;17.55;10.70;;;;;;;43.48;22.88;101041.59;3565068;40;20200;-74
2021/07/23 13:55:58;;;;;;;17.95;10.80;;;;;;;43.51;23.05;101041.13;3550578;40;20064;-74
2021/07/23 13:58:25;;;;;;;15.38;8.80;;;;;;;43.49;23.05;101034.19;3562569;40;20077;-74
2021/07/23 14:00:52;;;;;;;19.08;11.63;;;;;;;43.50;22.61;101038.63;3562719;40;20134;-74
2021/07/23 14:03:19;;;;;;;17.83;11.57;;;;;;;43.47;22.26;101033.59;3553705;40;20060;-74
2021/07/23 14:05:46;;;;;;;22.00;12.10;;;;;;;43.37;22.33;101041.63;3564144;40;20095;-74
2021/07/23 14:08:14;;;;;;;21.10;11.80;;;;;;;43.20;22.56;101044.31;3566672;40;20065;-74
2021/07/23 14:10:41;;;;;;;21.73;12.25;;;;;;;42.93;22.38;101033.78;3563031;40;20152;-74
2021/07/23 14:13:08;;;;;;;24.10;13.63;;;;;;;42.58;22.74;101031.03;3562504;40;20064;-74
2021/07/23 14:15:35;;;;;;;20.00;11.07;;;;;;;42.16;23.17;101027.50;3563691;40;20076;-74
2021/07/23 14:18:02;;;;;;;20.52;11.70;;;;;;;41.75;23.73;101026.41;3566026;40;20053;-74
2021/07/23 14:20:29;;;;;;;18.90;11.50;;;;;;;41.36;24.15;101023.13;3561746;40;20061;-74
2021/07/23 14:22:56;;;;;;;19.48;10.82;;;;;;;41.02;24.94;101026.50;3564746;40;20406;-74
2021/07/23 14:25:22;;;;;;;22.65;12.27;;;;;;;40.72;24.90;101017.09;3563925;40;20069;-73
2021/07/23 14:27:49;;;;;;;26.02;14.18;;;;;;;40.45;24.62;101016.47;3566233;40;20059;-74
2021/07/23 14:30:16;;;;;;;22.38;12.20;;;;;;;40.22;25.64;101016.25;3553762;40;20096;-74
2021/07/23 14:32:43;;;;;;;22.15;12.75;;;;;;;39.99;25.85;101013.22;3560474;40;20412;-74
2021/07/23 14:35:10;;;;;;;21.27;12.70;;;;;;;39.79;25.76;101005.97;3565611;40;20055;-74
2021/07/23 14:37:37;;;;;;;23.08;12.73;;;;;;;39.67;26.61;101005.03;3553822;40;20053;-74
2021/07/23 14:40:04;;;;;;;21.70;12.75;;;;;;;39.62;25.98;101021.22;3566545;40;20072;-74
2021/07/23 14:42:31;;;;;;;21.13;11.48;;;;;;;39.62;26.12;101008.38;3563072;40;20147;-73
2021/07/23 14:44:58;;;;;;;23.35;13.07;;;;;;;39.63;25.95;100996.41;3559000;40;20057;-74
2021/07/23 14:47:24;;;;;;;21.25;11.65;;;;;;;39.66;26.58;100989.69;3564748;40;20119;-74
2021/07/23 14:49:51;;;;;;;24.45;14.60;;;;;;;39.74;25.92;100991.28;3565643;40;20131;-74
2021/07/23 14:52:26;;;;;;;23.96;13.14;;;;;;;39.73;26.35;100995.94;3448051;40;10001079;-73
2021/07/23 14:54:52;;;;;;;22.90;12.93;;;;;;;39.78;26.80;100992.53;486968;40;10001995;-74
2021/07/23 14:57:19;;;;;;;21.83;12.73;;;;;;;39.82;26.45;100994.63;3565583;40;20064;-74
2021/07/23 14:59:47;;;;;;;23.98;12.95;;;;;;;39.90;25.74;100994.38;3566216;40;20505;-74
2021/07/23 15:02:14;;;;;;;25.17;13.63;;;;;;;39.94;25.45;100990.09;3567180;40;20290;-74
2021/07/23 15:04:41;;;;;;;20.13;12.38;;;;;;;40.00;25.92;100995.75;3565893;40;20091;-74
2021/07/23 15:07:08;;;;;;;19.70;11.50;;;;;;;40.04;25.48;100991.50;3557616;40;20045;-73
2021/07/23 15:09:34;;;;;;;23.70;12.57;;;;;;;40.05;26.05;100988.56;3563859;40;20063;-74
2021/07/23 15:12:02;;;;;;;19.05;10.48;;;;;;;40.09;25.91;100978.03;3561147;40;20174;-74
2021/07/23 15:14:29;;;;;;;21.83;11.30;;;;;;;40.08;25.76;100977.19;3568092;40;20057;-73
2021/07/23 15:16:58;;;;;;;21.02;11.27;;;;;;;40.09;25.52;100975.31;3565004;40;20423;-74
2021/07/23 15:19:25;;;;;;;22.80;10.55;;;;;;;40.06;26.01;100967.53;3567554;40;20087;-74
2021/07/23 15:21:57;;;;;;;15.30;9.23;;;;;;;40.07;25.76;100969.22;3567315;40;20053;-74
2021/07/23 15:24:32;;;;;;;20.52;11.38;;;;;;;40.15;25.58;100967.06;3564318;40;20549;-74
2021/07/23 15:27:02;;;;;;;21.90;11.65;;;;;;;40.11;25.29;100959.53;3562143;40;20348;-74
2021/07/23 15:29:29;;;;;;;19.52;10.95;;;;;;;40.06;26.08;100953.84;3563895;40;20150;-74
2021/07/23 15:31:56;;;;;;;22.95;11.70;;;;;;;40.00;26.01;100962.91;3567714;40;20060;-74
2021/07/23 15:34:23;;;;;;;20.75;9.65;;;;;;;39.90;25.59;100964.28;3550043;40;20073;-74
2021/07/23 15:36:50;;;;;;;20.27;10.60;;;;;;;39.81;25.82;100953.81;3566883;40;20081;-74
2021/07/23 15:39:17;;;;;;;21.85;12.07;;;;;;;39.73;25.95;100956.81;3564228;40;20069;-74
2021/07/23 15:41:44;;;;;;;20.00;11.07;;;;;;;39.65;26.10;100950.56;3564843;40;20067;-74
2021/07/23 15:44:11;;;;;;;21.75;11.55;;;;;;;39.63;26.40;100946.38;3564632;40;20377;-74
2021/07/23 15:46:38;;;;;;;20.10;10.85;;;;;;;39.60;25.95;100942.16;3553337;40;20071;-74
2021/07/23 15:49:07;;;;;;;21.58;12.60;;;;;;;39.58;26.28;100937.97;3560356;40;20134;-73
2021/07/23 15:51:33;;;;;;;16.02;9.55;;;;;;;39.57;26.36;100939.03;3566996;40;20080;-73
2021/07/23 15:54:00;;;;;;;16.65;10.18;;;;;;;39.54;26.20;100931.25;3559708;40;20049;-74
2021/07/23 15:56:27;;;;;;;15.68;9.05;;;;;;;39.46;26.47;100926.06;3564432;40;20053;-73
2021/07/23 15:58:53;;;;;;;22.50;10.15;;;;;;;39.38;26.46;100927.97;3558882;40;20133;-74
2021/07/23 16:01:20;;;;;;;19.92;10.73;;;;;;;39.27;27.03;100931.41;3566951;40;20076;-74
2021/07/23 16:03:48;;;;;;;16.67;8.95;;;;;;;39.16;27.05;100929.34;3565782;40;20060;-74
2021/07/23 16:06:14;;;;;;;19.27;10.43;;;;;;;39.04;27.09;100931.09;3566148;40;20666;-73
2021/07/23 16:08:41;;;;;;;18.35;9.68;;;;;;;38.91;26.94;100924.59;3567140;40;20077;-74
2021/07/23 16:11:08;;;;;;;18.38;9.38;;;;;;;38.80;27.43;100921.72;3551747;40;20675;-74
2021/07/23 16:13:35;;;;;;;15.57;8.43;;;;;;;38.69;27.84;100920.47;3568756;40;20048;-73
2021/07/23 16:16:02;;;;;;;18.98;10.68;;;;;;;38.62;27.68;100916.91;3565074;40;20092;-73
2021/07/23 16:18:29;;;;;;;19.88;11.02;;;;;;;38.57;27.95;100908.50;3558971;40;20513;-73
2021/07/23 16:20:56;;;;;;;19.55;10.35;;;;;;;38.55;28.09;100916.94;3561223;40;20349;-73
2021/07/23 16:23:23;;;;;;;16.55;9.38;;;;;;;38.56;28.12;100917.75;3563706;40;20053;-73
2021/07/23 16:25:49;;;;;;;20.05;10.30;;;;;;;38.53;28.02;100901.84;3547266;40;20549;-73
2021/07/23 16:28:17;;;;;;;16.42;9.52;;;;;;;38.45;28.17;100907.50;3564312;40;20061;-74
2021/07/23 16:30:44;;;;;;;17.17;10.07;;;;;;;38.37;27.83;100903.09;3565796;40;20080;-74
2021/07/23 16:33:11;;;;;;;19.42;10.48;;;;;;;38.26;28.68;100895.53;3563888;40;20813;-74
2021/07/23 16:35:37;;;;;;;19.13;10.02;;;;;;;38.18;28.65;100902.06;3558040;40;21220;-74
2021/07/23 16:38:06;;;;;;;18.10;10.73;;;;;;;38.13;28.77;100896.41;3566701;40;20095;-73
2021/07/23 16:40:32;;;;;;;16.40;8.88;;;;;;;38.06;28.46;100890.09;3566194;40;20716;-73
2021/07/23 16:42:59;;;;;;;22.27;12.90;;;;;;;38.00;28.56;100891.78;3566989;40;20057;-74
2021/07/23 16:45:26;;;;;;;19.60;10.10;;;;;;;37.90;28.67;100892.22;3555524;40;20151;-73
2021/07/23 16:47:53;;;;;;;16.70;9.85;;;;;;;37.78;29.49;100876.66;3563695;40;20057;-73
2021/07/23 16:50:20;;;;;;;17.70;9.98;;;;;;;37.72;29.23;100878.34;3564520;40;20127;-73
2021/07/23 16:52:47;;;;;;;21.42;10.38;;;;;;;37.67;29.70;100880.88;3563126;40;20083;-73
2021/07/23 16:55:14;;;;;;;17.95;10.95;;;;;;;37.63;29.47;100877.72;3553578;40;20065;-73
2021/07/23 16:57:41;;;;;;;19.50;11.55;;;;;;;37.58;29.87;100876.66;3561285;40;20057;-74
2021/07/23 17:00:11;;;;;;;22.50;12.23;;;;;;;37.54;29.47;100869.94;3556004;40;20108;-74
2021/07/23 17:02:39;;;;;;;17.10;10.68;;;;;;;37.50;29.88;100880.41;3552925;40;20052;-74
2021/07/23 17:05:08;;;;;;;22.08;12.40;;;;;;;37.49;29.81;100880.63;3551991;40;20394;-73
2021/07/23 17:07:35;;;;;;;20.60;12.02;;;;;;;37.47;29.79;100877.28;3551222;40;20178;-73
2021/07/23 17:10:03;;;;;;;19.52;11.27;;;;;;;37.47;29.56;100888.19;3566800;40;20088;-76
2021/07/23 17:12:30;;;;;;;18.65;11.52;;;;;;;37.46;29.88;100881.03;3566850;40;20061;-76
2021/07/23 17:14:57;;;;;;;20.60;10.60;;;;;;;37.42;29.61;100886.06;3568752;40;20076;-75
2021/07/23 17:17:24;;;;;;;20.10;11.45;;;;;;;37.38;29.62;100888.34;3566636;40;20049;-75
2021/07/23 17:19:54;;;;;;;16.05;9.80;;;;;;;37.34;29.50;100881.59;3564616;40;20048;-75
2021/07/23 17:22:22;;;;;;;19.77;11.05;;;;;;;37.18;29.93;100879.25;3559964;40;20384;-75
2021/07/23 17:24:48;;;;;;;17.02;9.55;;;;;;;37.06;29.99;100872.75;3565655;40;20311;-75
2021/07/23 17:27:15;;;;;;;17.80;10.32;;;;;;;36.94;30.00;100871.63;3565757;40;20064;-76
2021/07/23 17:29:43;;;;;;;22.95;11.57;;;;;;;36.80;30.22;100865.25;3550762;40;20064;-75
2021/07/23 17:32:11;;;;;;;18.48;9.85;;;;;;;36.64;30.55;100858.28;3564251;40;20060;-75
2021/07/23 17:34:38;;;;;;;18.50;9.80;;;;;;;36.48;30.33;100864.91;3566056;40;20438;-75
2021/07/23 17:37:06;;;;;;;20.67;11.05;;;;;;;36.31;30.64;100858.91;3558719;40;20057;-75
2021/07/23 17:39:33;;;;;;;17.45;10.10;;;;;;;36.10;31.18;100853.56;3566086;40;20171;-75
2021/07/23 17:42:00;;;;;;;18.75;10.88;;;;;;;35.96;31.63;100854.50;3563471;40;20059;-76
2021/07/23 17:44:32;;;;;;;14.80;9.18;;;;;;;35.81;32.05;100860.81;3566531;40;20848;-75
2021/07/23 17:47:00;;;;;;;14.35;7.30;;;;;;;35.69;32.32;100865.13;3546208;40;20060;-76
2021/07/23 17:49:27;;;;;;;18.30;10.18;;;;;;;35.58;32.26;100862.91;3557715;40;20049;-75
2021/07/23 17:51:55;;;;;;;19.15;10.00;;;;;;;35.50;32.43;100860.34;3564933;40;20327;-75
2021/07/23 17:54:22;;;;;;;16.95;8.57;;;;;;;35.36;32.47;100857.44;3563525;40;20052;-75
2021/07/23 17:56:49;;;;;;;18.60;10.27;;;;;;;35.28;32.79;100844.00;3566041;40;20089;-75
2021/07/23 17:59:16;;;;;;;18.02;10.38;;;;;;;35.21;32.67;100848.50;3559318;40;20079;-75
2021/07/23 18:01:42;;;;;;;;;;;;;;;35.22;32.23;100849.34;3568161;40;20069;-81
2021/07/23 18:04:10;;;;;;;18.33;9.35;;;;;;;35.09;33.21;100842.75;3562991;40;19940;-81
2021/07/23 18:06:43;;;;;;;18.50;10.27;;;;;;;35.06;32.99;100843.13;3550429;40;20531;-80
2021/07/23 18:09:14;;;;;;;17.73;10.20;;;;;;;35.06;33.25;100847.72;3559251;40;20084;-80
2021/07/23 18:11:46;;;;;;;16.27;9.50;;;;;;;35.05;32.94;100835.19;3562289;40;20081;-81
2021/07/23 18:14:14;;;;;;;17.00;9.00;;;;;;;35.00;33.16;100829.50;3559102;40;20086;-80
2021/07/23 18:16:42;;;;;;;15.68;8.43;;;;;;;34.90;33.18;100826.22;3550388;40;20063;-81
2021/07/23 18:19:09;;;;;;;15.13;8.68;;;;;;;34.94;33.13;100838.38;3570047;40;20052;-81
2021/07/23 18:21:36;;;;;;;19.17;10.30;;;;;;;34.93;32.94;100833.97;3564149;40;20067;-81
2021/07/23 18:24:08;;;;;;;17.77;9.48;;;;;;;34.91;32.90;100841.44;3572257;40;20923;-81
2021/07/23 18:26:34;;;;;;;21.17;10.32;;;;;;;34.76;33.42;100834.16;3555847;40;20493;-81
2021/07/23 18:29:02;;;;;;;18.58;9.80;;;;;;;34.65;33.45;100833.81;3565426;40;20048;-81
2021/07/23 18:31:31;;;;;;;16.48;8.25;;;;;;;34.54;33.63;100832.44;3562577;40;20767;-81
2021/07/23 18:33:59;;;;;;;16.45;9.32;;;;;;;34.37;33.66;100820.06;3563279;40;20040;-81
2021/07/23 18:36:28;;;;;;;15.40;8.88;;;;;;;34.34;33.87;100841.09;3562220;40;20420;-81
2021/07/23 18:38:55;;;;;;;13.60;7.35;;;;;;;34.21;34.09;100832.75;3572775;40;20060;-81
2021/07/23 18:41:21;;;;;;;16.50;8.57;;;;;;;34.05;34.69;100831.06;3567447;40;20112;-80
2021/07/23 18:43:48;;;;;;;18.88;8.95;;;;;;;33.92;34.74;100830.00;3554885;40;20077;-81
2021/07/23 18:46:15;;;;;;;16.58;8.93;;;;;;;33.81;34.63;100821.31;3565205;40;20150;-81
2021/07/23 18:48:43;;;;;;;;;;;;;;;33.78;33.73;100829.78;3567019;40;20064;-81
2021/07/23 18:51:16;;;;;;;14.85;8.02;;;;;;;33.59;34.96;100833.00;3573588;40;22114;-81
2021/07/23 18:53:44;;;;;;;17.13;8.52;;;;;;;33.36;35.38;100824.03;3561465;40;20075;-81
2021/07/23 18:56:11;;;;;;;12.73;7.38;;;;;;;33.24;35.56;100824.41;3569248;40;20042;-81
2021/07/23 18:58:39;;;;;;;;;;;;;;;33.17;34.30;100828.88;3576015;40;20048;-80
2021/07/23 19:01:08;;;;;;;15.25;8.10;;;;;;;32.83;36.12;100809.44;3552510;40;19941;-80
2021/07/23 19:03:39;;;;;;;13.55;7.18;;;;;;;32.76;35.72;100826.38;3564441;40;20076;-81
2021/07/23 19:06:08;;;;;;;14.27;7.90;;;;;;;32.54;35.94;100827.13;3572197;40;20158;-80
2021/07/23 19:08:36;;;;;;;15.25;8.35;;;;;;;32.31;36.73;100826.19;3574134;40;20068;-80
2021/07/23 19:11:11;;;;;;;14.60;7.60;;;;;;;32.11;36.70;100831.13;3568166;40;20063;-80
2021/07/23 19:13:39;;;;;;;17.23;7.03;;;;;;;31.85;37.18;100817.81;3570464;40;20596;-81
2021/07/23 19:16:06;;;;;;;13.52;6.50;;;;;;;31.60;37.71;100815.09;3567309;40;20398;-81
2021/07/23 19:18:35;;;;;;;12.90;6.25;;;;;;;31.44;38.68;100823.19;3563645;40;20057;-80
2021/07/23 19:21:04;;;;;;;12.63;7.30;;;;;;;31.26;38.71;100817.94;3559052;40;20917;-81
2021/07/23 19:23:32;;;;;;;12.85;7.82;;;;;;;31.13;39.54;100814.88;3567235;40;20093;-80
2021/07/23 19:26:01;;;;;;;14.70;7.38;;;;;;;30.99;39.02;100814.50;3574785;40;20306;-81
2021/07/23 19:28:28;;;;;;;13.38;7.55;;;;;;;30.76;39.33;100805.31;3575620;40;20064;-80
2021/07/23 19:30:55;;;;;;;;;;;;;;;30.80;37.70;100832.78;3574217;40;20121;-81
2021/07/23 19:33:25;;;;;;;11.88;6.43;;;;;;;30.61;40.60;100834.69;3569214;40;19964;-81
2021/07/23 19:35:55;;;;;;;12.75;7.18;;;;;;;30.49;39.91;100833.31;3564354;40;20061;-81
2021/07/23 19:38:23;;;;;;;12.48;6.07;;;;;;;30.31;41.43;100819.91;3577019;40;20056;-80
2021/07/23 19:40:50;;;;;;;13.32;6.03;;;;;;;30.20;40.65;100818.31;3551989;40;20081;-80
2021/07/23 19:43:17;;;;;;;11.82;6.10;;;;;;;30.10;41.52;100833.72;3564157;40;20051;-81
2021/07/23 19:45:59;;;;;;;15.38;6.93;;;;;;;29.94;40.47;100822.84;3577707;40;20399;-80
2021/07/23 19:48:28;;;;;;;12.18;5.45;;;;;;;29.85;41.64;100831.84;3562372;40;20381;-80
2021/07/23 19:50:56;;;;;;;11.27;6.22;;;;;;;29.70;41.93;100832.44;3560680;40;20061;-81
2021/07/23 19:53:24;;;;;;;11.98;6.15;;;;;;;29.60;41.66;100823.59;3569585;40;20081;-81